createdAt,value
2022-11-13T00:01:28.116Z,102404.84
2022-11-13T00:03:59.364Z,102406.81
2022-11-13T00:06:28.059Z,102397.94
2022-11-13T00:08:56.734Z,102406.56
2022-11-13T00:11:26.139Z,102400.84
2022-11-13T00:13:55.138Z,102409.84
2022-11-13T00:16:23.208Z,102404.84
2022-11-13T00:18:54.019Z,102402.91
2022-11-13T00:21:25.469Z,102391.63
2022-11-13T00:23:56.132Z,102388.31
2022-11-13T00:26:29.603Z,102392.56
2022-11-13T00:29:00.685Z,102394.00
2022-11-13T00:31:29.907Z,102397.56
2022-11-13T00:36:49.893Z,102387.81
2022-11-13T00:39:18.152Z,102388.09
2022-11-13T00:41:46.106Z,102385.75
2022-11-13T00:44:15.158Z,102386.50
2022-11-13T00:46:43.087Z,102380.06
2022-11-13T00:49:13.389Z,102373.34
2022-11-13T00:51:43.033Z,102376.38
2022-11-13T00:54:11.897Z,102367.25
2022-11-13T00:56:40.059Z,102356.94
2022-11-13T00:59:09.070Z,102359.84
2022-11-13T01:01:38.123Z,102363.00
2022-11-13T01:04:06.013Z,102360.34
2022-11-13T01:06:34.794Z,102360.34
2022-11-13T01:09:03.360Z,102359.13
2022-11-13T01:11:33.474Z,102354.00
2022-11-13T01:14:02.078Z,102342.59
2022-11-13T01:16:30.056Z,102345.25
2022-11-13T01:19:01.044Z,102342.31
2022-11-13T01:21:29.849Z,102335.75
2022-11-13T01:23:58.162Z,102331.50
2022-11-13T01:26:30.727Z,102331.88
2022-11-13T01:29:01.308Z,102338.94
2022-11-13T01:31:37.024Z,102329.81
2022-11-13T01:34:05.731Z,102334.78
2022-11-13T01:36:34.848Z,102331.63
2022-11-13T01:39:05.930Z,102336.28
2022-11-13T01:41:37.197Z,102333.59
2022-11-13T01:44:13.609Z,102321.88
2022-11-13T01:46:55.712Z,102325.31
2022-11-13T01:49:34.965Z,102328.94
2022-11-13T01:52:10.623Z,102327.50
2022-11-13T01:54:44.398Z,102332.47
2022-11-13T01:57:17.078Z,102331.41
2022-11-13T02:00:00.866Z,102323.81
2022-11-13T02:02:29.747Z,102318.47
2022-11-13T02:04:58.045Z,102321.91
2022-11-13T02:07:27.413Z,102322.34
2022-11-13T02:10:03.133Z,102320.81
2022-11-13T02:12:42.725Z,102330.38
2022-11-13T02:15:14.493Z,102321.78
2022-11-13T02:17:54.140Z,102320.22
2022-11-13T02:20:48.815Z,102318.59
2022-11-13T02:23:45.167Z,102328.84
2022-11-13T02:26:13.639Z,102328.47
2022-11-13T02:28:42.545Z,102325.03
2022-11-13T02:31:12.908Z,102330.63
2022-11-13T02:33:41.664Z,102324.56
2022-11-13T02:36:16.052Z,102328.69
2022-11-13T02:38:47.350Z,102318.50
2022-11-13T02:41:17.111Z,102323.97
2022-11-13T02:43:45.048Z,102316.53
2022-11-13T02:46:13.924Z,102317.28
2022-11-13T02:48:42.123Z,102320.19
2022-11-13T02:51:11.188Z,102314.09
2022-11-13T02:53:39.048Z,102317.25
2022-11-13T02:56:10.435Z,102316.78
2022-11-13T02:58:39.080Z,102316.78
2022-11-13T03:01:08.076Z,102311.91
2022-11-13T03:06:26.035Z,102305.81
2022-11-13T03:08:59.026Z,102301.59
2022-11-13T03:11:27.008Z,102302.53
2022-11-13T03:13:56.801Z,102297.81
2022-11-13T03:16:24.974Z,102303.88
2022-11-13T03:18:53.494Z,102297.53
2022-11-13T03:21:22.148Z,102292.06
2022-11-13T03:23:51.560Z,102298.78
2022-11-13T03:26:20.164Z,102297.31
2022-11-13T03:28:49.042Z,102294.03
2022-11-13T03:31:18.472Z,102295.63
2022-11-13T03:33:47.302Z,102292.59
2022-11-13T03:36:16.276Z,102289.53
2022-11-13T03:38:45.316Z,102291.59
2022-11-13T03:41:17.326Z,102290.50
2022-11-13T03:43:47.299Z,102284.78
2022-11-13T03:46:16.820Z,102288.31
2022-11-13T03:48:45.032Z,102284.88
2022-11-13T03:51:14.149Z,102272.63
2022-11-13T03:53:42.444Z,102279.28
2022-11-13T03:56:12.273Z,102287.94
2022-11-13T03:58:40.596Z,102280.03
2022-11-13T04:01:09.120Z,102272.75
2022-11-13T04:03:37.873Z,102276.59
2022-11-13T04:06:06.259Z,102281.84
2022-11-13T04:08:36.050Z,102277.56
2022-11-13T04:11:13.302Z,102276.88
2022-11-13T04:13:41.147Z,102272.50
2022-11-13T04:16:09.934Z,102264.91
2022-11-13T04:18:37.987Z,102270.66
2022-11-13T04:21:07.359Z,102266.41
2022-11-13T04:23:36.335Z,102261.31
2022-11-13T04:26:04.201Z,102266.16
2022-11-13T04:28:32.931Z,102273.94
2022-11-13T04:31:01.139Z,102273.22
2022-11-13T04:33:29.868Z,102260.06
2022-11-13T04:35:57.973Z,102276.38
2022-11-13T04:38:26.349Z,102266.88
2022-11-13T04:41:16.589Z,102274.41
2022-11-13T04:43:45.020Z,102260.06
2022-11-13T04:46:14.271Z,102272.22
2022-11-13T04:48:43.081Z,102269.75
2022-11-13T04:51:11.064Z,102272.31
2022-11-13T04:53:40.613Z,102264.16
2022-11-13T04:56:09.141Z,102266.09
2022-11-13T04:58:37.766Z,102257.69
2022-11-13T05:01:06.496Z,102262.81
2022-11-13T05:03:37.716Z,102259.75
2022-11-13T05:06:08.765Z,102266.06
2022-11-13T05:08:37.294Z,102267.56
2022-11-13T05:11:06.635Z,102270.78
2022-11-13T05:13:37.102Z,102264.69
2022-11-13T05:16:09.940Z,102266.28
2022-11-13T05:18:39.177Z,102266.28
2022-11-13T05:21:10.110Z,102265.34
2022-11-13T05:23:38.059Z,102285.78
2022-11-13T05:26:13.428Z,102288.75
2022-11-13T05:28:42.246Z,102288.09
2022-11-13T05:31:16.445Z,102288.22
2022-11-13T05:33:45.448Z,102280.34
2022-11-13T05:36:18.718Z,102282.84
2022-11-13T05:38:47.257Z,102284.97
2022-11-13T05:41:20.620Z,102291.38
2022-11-13T05:43:52.620Z,102300.16
2022-11-13T05:46:29.320Z,102291.88
2022-11-13T05:49:02.167Z,102287.47
2022-11-13T05:51:34.306Z,102282.69
2022-11-13T05:54:07.162Z,102293.56
2022-11-13T05:56:37.831Z,102293.06
2022-11-13T05:59:09.546Z,102284.22
2022-11-13T06:01:40.170Z,102284.56
2022-11-13T06:04:10.265Z,102292.22
2022-11-13T06:06:40.570Z,102287.97
2022-11-13T06:09:10.651Z,102277.97
2022-11-13T06:11:39.081Z,102283.47
2022-11-13T06:14:18.814Z,102293.31
2022-11-13T06:16:48.076Z,102277.75
2022-11-13T06:19:16.071Z,102286.50
2022-11-13T06:21:44.814Z,102279.88
2022-11-13T06:24:15.114Z,102277.72
2022-11-13T06:26:44.712Z,102279.13
2022-11-13T06:29:15.542Z,102271.34
2022-11-13T06:31:46.440Z,102267.81
2022-11-13T06:34:16.256Z,102259.47
2022-11-13T06:37:01.825Z,102257.94
2022-11-13T06:42:34.637Z,102259.56
2022-11-13T06:45:07.195Z,102258.44
2022-11-13T06:47:52.089Z,102259.03
2022-11-13T06:50:34.470Z,102261.41
2022-11-13T06:53:06.968Z,102262.78
2022-11-13T06:55:46.895Z,102265.00
2022-11-13T06:58:31.161Z,102269.31
2022-11-13T07:10:08.384Z,102272.97
2022-11-13T07:12:45.041Z,102276.63
2022-11-13T07:15:24.338Z,102273.31
2022-11-13T07:18:12.328Z,102270.25
2022-11-13T07:20:50.338Z,102268.28
2022-11-13T07:23:19.153Z,102261.56
2022-11-13T07:28:45.781Z,102252.16
2022-11-13T07:31:19.086Z,102259.66
2022-11-13T07:33:51.996Z,102260.97
2022-11-13T07:36:21.056Z,102258.88
2022-11-13T07:38:49.154Z,102252.06
2022-11-13T07:41:17.283Z,102256.63
2022-11-13T07:46:36.883Z,102259.91
2022-11-13T07:49:05.283Z,102262.19
2022-11-13T07:51:34.788Z,102260.22
2022-11-13T07:54:06.196Z,102249.53
2022-11-13T07:56:38.219Z,102255.91
2022-11-13T07:59:06.169Z,102249.75
2022-11-13T08:01:35.673Z,102260.78
2022-11-13T08:04:05.076Z,102259.16
2022-11-13T08:06:37.375Z,102254.03
2022-11-13T08:09:06.096Z,102259.41
2022-11-13T08:11:37.909Z,102259.16
2022-11-13T08:14:08.563Z,102251.59
2022-11-13T08:16:37.547Z,102256.63
2022-11-13T08:19:06.246Z,102254.38
2022-11-13T08:21:38.111Z,102261.47
2022-11-13T08:24:06.331Z,102266.88
2022-11-13T08:26:41.879Z,102251.06
2022-11-13T08:29:10.950Z,102252.88
2022-11-13T08:31:39.175Z,102255.34
2022-11-13T08:34:08.211Z,102259.19
2022-11-13T08:36:39.065Z,102254.47
2022-11-13T08:39:10.155Z,102256.31
2022-11-13T08:41:38.337Z,102250.81
2022-11-13T08:44:07.376Z,102250.22
2022-11-13T08:46:35.161Z,102243.47
2022-11-13T08:49:05.593Z,102257.03
2022-11-13T08:51:34.711Z,102248.56
2022-11-13T08:54:05.118Z,102250.09
2022-11-13T08:56:33.193Z,102240.66
2022-11-13T08:59:02.206Z,102243.88
2022-11-13T09:01:32.424Z,102234.59
2022-11-13T09:04:01.132Z,102225.34
2022-11-13T09:06:30.575Z,102227.06
2022-11-13T09:09:01.144Z,102229.31
2022-11-13T09:11:29.094Z,102228.91
2022-11-13T09:13:59.019Z,102214.91
2022-11-13T09:16:27.156Z,102214.63
2022-11-13T09:18:58.768Z,102214.06
2022-11-13T09:21:27.198Z,102211.78
2022-11-13T09:23:56.307Z,102213.50
2022-11-13T09:26:25.288Z,102205.84
2022-11-13T09:28:54.908Z,102208.69
2022-11-13T09:31:23.181Z,102203.56
2022-11-13T09:33:53.488Z,102199.63
2022-11-13T09:36:22.218Z,102207.84
2022-11-13T09:38:52.311Z,102206.69
2022-11-13T09:41:25.403Z,102205.41
2022-11-13T09:44:00.000Z,102206.69
2022-11-13T09:46:52.835Z,102203.88
2022-11-13T09:49:35.565Z,102196.94
2022-11-13T09:52:16.416Z,102195.94
2022-11-13T09:54:45.582Z,102206.97
2022-11-13T09:57:41.379Z,102192.25
2022-11-13T10:00:22.452Z,102192.41
2022-11-13T10:06:41.612Z,102189.97
2022-11-13T10:09:31.832Z,102187.16
2022-11-13T10:12:08.886Z,102191.78
2022-11-13T10:14:46.916Z,102182.56
2022-11-13T10:17:28.297Z,102186.78
2022-11-13T10:19:59.919Z,102183.09
2022-11-13T10:22:35.599Z,102184.38
2022-11-13T10:25:18.628Z,102188.44
2022-11-13T10:28:15.946Z,102192.97
2022-11-13T10:30:51.112Z,102196.22
2022-11-13T10:33:26.617Z,102192.31
2022-11-13T10:36:47.296Z,102202.94
2022-11-13T10:39:18.732Z,102192.72
2022-11-13T10:41:59.942Z,102184.34
2022-11-13T10:44:32.455Z,102195.59
2022-11-13T10:50:25.789Z,102176.09
2022-11-13T10:53:18.371Z,102182.88
2022-11-13T10:56:02.206Z,102188.34
2022-11-13T10:58:39.082Z,102182.97
2022-11-13T11:01:26.524Z,102180.72
2022-11-13T11:03:58.363Z,102173.94
2022-11-13T11:09:31.783Z,102167.16
2022-11-13T11:15:22.956Z,102158.03
2022-11-13T11:17:55.387Z,102160.69
2022-11-13T11:20:53.993Z,102155.91
2022-11-13T11:23:56.033Z,102145.53
2022-11-13T11:26:52.454Z,102147.66
2022-11-13T11:30:17.318Z,102136.25
2022-11-13T11:33:13.666Z,102139.81
2022-11-13T11:36:05.050Z,102143.88
2022-11-13T11:38:43.196Z,102133.41
2022-11-13T11:41:24.349Z,102136.78
2022-11-13T11:44:18.128Z,102134.78
2022-11-13T11:46:54.730Z,102122.53
2022-11-13T11:49:26.739Z,102125.19
2022-11-13T11:52:20.505Z,102120.66
2022-11-13T11:54:57.803Z,102123.78
2022-11-13T11:57:44.195Z,102130.41
2022-11-13T12:00:18.116Z,102122.50
2022-11-13T12:03:39.820Z,102127.22
2022-11-13T12:06:25.106Z,102119.91
2022-11-13T12:09:33.256Z,102117.16
2022-11-13T12:12:28.115Z,102114.97
2022-11-13T12:15:26.169Z,102109.59
2022-11-13T12:18:06.009Z,102111.19
2022-11-13T12:24:31.049Z,102109.94
2022-11-13T12:27:42.418Z,102095.16
2022-11-13T12:31:02.134Z,102095.03
2022-11-13T12:34:06.517Z,102096.19
2022-11-13T12:36:38.959Z,102105.97
2022-11-13T12:40:03.969Z,102104.16
2022-11-13T12:43:02.800Z,102095.38
2022-11-13T12:45:55.678Z,102104.38
2022-11-13T12:51:45.172Z,102087.09
2022-11-13T12:54:13.413Z,102084.59
2022-11-13T12:56:43.693Z,102091.50
2022-11-13T12:59:30.980Z,102095.56
2022-11-13T13:02:41.442Z,102088.41
2022-11-13T13:05:16.355Z,102089.09
2022-11-13T13:08:23.008Z,102096.66
2022-11-13T13:11:39.898Z,102086.69
2022-11-13T13:17:45.916Z,102093.16
2022-11-13T13:21:11.196Z,102093.69
2022-11-13T13:23:53.597Z,102088.53
2022-11-13T13:26:27.793Z,102084.34
2022-11-13T13:29:19.294Z,102087.53
2022-11-13T13:32:13.635Z,102088.31
2022-11-13T13:35:20.883Z,102083.25
2022-11-13T13:38:06.644Z,102096.91
2022-11-13T13:40:48.233Z,102084.97
2022-11-13T13:43:51.609Z,102093.41
2022-11-13T13:46:30.139Z,102102.81
2022-11-13T13:49:15.933Z,102095.41
2022-11-13T13:52:10.911Z,102089.59
2022-11-13T13:54:41.564Z,102085.75
2022-11-13T13:57:17.327Z,102083.13
2022-11-13T13:59:46.278Z,102083.09
2022-11-13T14:02:25.858Z,102084.84
2022-11-13T14:04:57.252Z,102085.97
2022-11-13T14:07:30.191Z,102087.06
2022-11-13T14:10:11.943Z,102090.53
2022-11-13T14:12:44.986Z,102086.94
2022-11-13T14:15:35.378Z,102092.38
2022-11-13T14:18:20.593Z,102093.63
2022-11-13T14:21:01.278Z,102091.78
2022-11-13T14:23:37.213Z,102088.34
2022-11-13T14:26:07.002Z,102085.69
2022-11-13T14:29:20.665Z,102096.66
2022-11-13T14:31:58.729Z,102090.47
2022-11-13T14:34:32.583Z,102087.78
2022-11-13T14:37:39.725Z,102095.22
2022-11-13T14:46:41.424Z,102088.91
2022-11-13T14:49:35.220Z,102082.97
2022-11-13T14:52:26.433Z,102085.88
2022-11-13T14:55:15.122Z,102087.03
2022-11-13T14:57:59.214Z,102087.09
2022-11-13T15:00:33.116Z,102087.31
2022-11-13T15:03:20.348Z,102094.47
2022-11-13T15:05:55.118Z,102097.94
2022-11-13T15:08:37.647Z,102099.63
2022-11-13T15:13:52.650Z,102098.13
2022-11-13T15:16:33.681Z,102101.88
2022-11-13T15:19:19.224Z,102099.66
2022-11-13T15:22:20.353Z,102097.16
2022-11-13T15:30:10.031Z,102107.66
2022-11-13T15:35:40.744Z,102108.66
2022-11-13T15:38:12.643Z,102104.84
2022-11-13T15:40:44.483Z,102106.41
2022-11-13T15:43:21.797Z,102109.38
2022-11-13T15:46:00.181Z,102124.94
2022-11-13T15:48:30.528Z,102114.75
2022-11-13T15:51:04.659Z,102111.09
2022-11-13T15:53:38.186Z,102118.72
2022-11-13T15:56:08.201Z,102121.88
2022-11-13T15:58:40.538Z,102123.56
2022-11-13T16:01:17.311Z,102125.69
2022-11-13T16:03:49.072Z,102121.16
2022-11-13T16:06:22.257Z,102115.91
2022-11-13T16:08:53.231Z,102113.38
2022-11-13T16:11:23.119Z,102112.19
2022-11-13T16:13:53.083Z,102118.41
2022-11-13T16:16:36.039Z,102124.97
2022-11-13T16:19:18.865Z,102121.72
2022-11-13T16:21:51.986Z,102113.03
2022-11-13T16:24:24.157Z,102121.78
2022-11-13T16:27:06.937Z,102115.16
2022-11-13T16:29:46.050Z,102117.13
2022-11-13T16:32:17.411Z,102118.13
2022-11-13T16:34:48.535Z,102112.16
2022-11-13T16:37:20.367Z,102109.91
2022-11-13T16:39:55.007Z,102113.28
2022-11-13T16:42:31.058Z,102118.13
2022-11-13T16:45:11.018Z,102118.38
2022-11-13T16:47:40.162Z,102114.25
2022-11-13T16:50:25.321Z,102118.63
2022-11-13T16:52:54.592Z,102127.53
2022-11-13T16:55:45.163Z,102122.59
2022-11-13T16:58:15.212Z,102128.81
2022-11-13T17:01:01.538Z,102128.91
2022-11-13T17:03:32.541Z,102124.72
2022-11-13T17:06:03.605Z,102130.16
2022-11-13T17:08:39.705Z,102129.06
2022-11-13T17:11:25.341Z,102124.53
2022-11-13T17:14:00.816Z,102125.09
2022-11-13T17:16:32.620Z,102124.91
2022-11-13T17:19:05.698Z,102125.91
2022-11-13T17:21:49.737Z,102119.09
2022-11-13T17:24:22.157Z,102117.84
2022-11-13T17:27:05.064Z,102122.22
2022-11-13T17:29:36.210Z,102137.00
2022-11-13T17:32:21.537Z,102129.94
2022-11-13T17:34:50.493Z,102134.06
2022-11-13T17:37:25.371Z,102126.00
2022-11-13T17:39:55.299Z,102135.44
2022-11-13T17:45:22.259Z,102140.38
2022-11-13T17:48:00.443Z,102138.53
2022-11-13T17:50:29.659Z,102144.56
2022-11-13T17:53:01.911Z,102149.25
2022-11-13T17:55:34.908Z,102152.00
2022-11-13T17:58:08.448Z,102154.56
2022-11-13T18:00:43.712Z,102144.50
2022-11-13T18:03:18.539Z,102149.78
2022-11-13T18:05:50.272Z,102144.28
2022-11-13T18:08:19.244Z,102147.38
2022-11-13T18:10:48.252Z,102156.28
2022-11-13T18:13:17.147Z,102157.88
2022-11-13T18:15:48.593Z,102152.38
2022-11-13T18:18:19.489Z,102163.09
2022-11-13T18:20:50.628Z,102151.78
2022-11-13T18:23:20.150Z,102156.16
2022-11-13T18:25:50.242Z,102153.31
2022-11-13T18:28:25.973Z,102154.44
2022-11-13T18:30:56.883Z,102152.59
2022-11-13T18:33:27.111Z,102151.28
2022-11-13T18:36:06.596Z,102153.44
2022-11-13T18:38:35.926Z,102155.41
2022-11-13T18:41:16.067Z,102146.97
2022-11-13T18:43:48.034Z,102146.13
2022-11-13T18:46:20.186Z,102153.44
2022-11-13T18:48:50.618Z,102153.44
2022-11-13T18:51:29.638Z,102142.72
2022-11-13T18:54:09.475Z,102143.97
2022-11-13T18:56:43.154Z,102146.06
2022-11-13T18:59:14.143Z,102145.75
2022-11-13T19:01:43.277Z,102144.78
2022-11-13T19:04:27.914Z,102149.16
2022-11-13T19:07:00.352Z,102146.66
2022-11-13T19:09:34.161Z,102140.75
2022-11-13T19:12:03.137Z,102148.09
2022-11-13T19:14:35.573Z,102141.53
2022-11-13T19:17:12.195Z,102146.13
2022-11-13T19:19:50.035Z,102140.25
2022-11-13T19:22:19.835Z,102137.09
2022-11-13T19:24:57.470Z,102149.56
2022-11-13T19:27:27.173Z,102150.94
2022-11-13T19:29:55.134Z,102149.16
2022-11-13T19:32:27.146Z,102148.84
2022-11-13T19:34:59.250Z,102148.41
2022-11-13T19:37:29.285Z,102149.53
2022-11-13T19:40:00.317Z,102147.25
2022-11-13T19:42:33.094Z,102147.56
2022-11-13T19:45:03.677Z,102141.28
2022-11-13T19:47:32.156Z,102143.25
2022-11-13T19:50:02.683Z,102139.16
2022-11-13T19:52:35.630Z,102148.31
2022-11-13T19:55:08.861Z,102140.38
2022-11-13T19:57:44.923Z,102137.50
2022-11-13T20:00:18.965Z,102139.22
2022-11-13T20:02:49.940Z,102137.13
2022-11-13T20:05:19.302Z,102148.69
2022-11-13T20:07:50.987Z,102134.81
2022-11-13T20:10:21.892Z,102136.72
2022-11-13T20:12:50.557Z,102135.53
2022-11-13T20:15:31.722Z,102130.19
2022-11-13T20:18:01.958Z,102126.63
2022-11-13T20:20:31.881Z,102123.41
2022-11-13T20:23:13.207Z,102125.75
2022-11-13T20:25:55.631Z,102121.63
2022-11-13T20:28:25.135Z,102125.84
2022-11-13T20:31:23.281Z,102123.28
2022-11-13T20:33:55.597Z,102118.19
2022-11-13T20:36:26.927Z,102121.59
2022-11-13T20:38:58.178Z,102123.38
2022-11-13T20:41:29.546Z,102123.81
2022-11-13T20:44:04.154Z,102124.53
2022-11-13T20:46:36.114Z,102125.19
2022-11-13T20:49:10.474Z,102117.53
2022-11-13T20:51:41.532Z,102125.81
2022-11-13T20:54:12.667Z,102123.63
2022-11-13T20:56:42.281Z,102124.50
2022-11-13T20:59:13.784Z,102124.78
2022-11-13T21:01:44.758Z,102112.44
2022-11-13T21:04:16.343Z,102123.72
2022-11-13T21:06:45.176Z,102118.78
2022-11-13T21:09:19.431Z,102123.00
2022-11-13T21:11:48.734Z,102122.50
2022-11-13T21:14:23.001Z,102124.19
2022-11-13T21:16:55.114Z,102124.44
2022-11-13T21:19:23.681Z,102131.50
2022-11-13T21:21:53.096Z,102128.09
2022-11-13T21:24:22.497Z,102128.09
2022-11-13T21:26:51.218Z,102119.81
2022-11-13T21:29:20.631Z,102132.09
2022-11-13T21:31:49.141Z,102129.78
2022-11-13T21:34:18.625Z,102137.72
2022-11-13T21:36:47.120Z,102133.69
2022-11-13T21:39:18.774Z,102133.25
2022-11-13T21:41:47.831Z,102134.22
2022-11-13T21:44:17.993Z,102135.34
2022-11-13T21:46:46.780Z,102136.19
2022-11-13T21:52:14.796Z,102137.03
2022-11-13T21:54:45.134Z,102123.25
2022-11-13T21:57:15.270Z,102118.03
2022-11-13T21:59:45.397Z,102126.66
2022-11-13T22:02:16.780Z,102125.38
2022-11-13T22:04:44.999Z,102113.41
2022-11-13T22:07:14.390Z,102122.84
2022-11-13T22:09:46.068Z,102110.94
2022-11-13T22:12:15.360Z,102114.81
2022-11-13T22:14:44.388Z,102113.84
2022-11-13T22:17:15.580Z,102119.41
2022-11-13T22:19:44.806Z,102118.72
2022-11-13T22:22:13.954Z,102121.63
2022-11-13T22:24:42.671Z,102122.97
2022-11-13T22:27:14.608Z,102128.59
2022-11-13T22:29:43.965Z,102134.91
2022-11-13T22:32:12.504Z,102147.69
2022-11-13T22:34:42.272Z,102135.28
2022-11-13T22:37:11.221Z,102133.81
2022-11-13T22:39:43.946Z,102137.47
2022-11-13T22:42:12.965Z,102142.53
2022-11-13T22:44:55.538Z,102124.59
2022-11-13T22:47:25.250Z,102135.66
2022-11-13T22:49:53.095Z,102129.25
2022-11-13T22:52:21.962Z,102137.09
2022-11-13T22:54:50.040Z,102137.84
2022-11-13T22:57:21.812Z,102149.41
2022-11-13T22:59:52.127Z,102147.69
2022-11-13T23:02:21.378Z,102133.81
2022-11-13T23:04:49.980Z,102137.34
2022-11-13T23:07:21.623Z,102126.38
2022-11-13T23:09:59.132Z,102126.75
2022-11-13T23:12:35.713Z,102126.78
2022-11-13T23:15:09.736Z,102133.22
2022-11-13T23:17:41.634Z,102137.47
2022-11-13T23:20:13.021Z,102137.00
2022-11-13T23:22:40.950Z,102147.69
2022-11-13T23:25:10.738Z,102137.78
2022-11-13T23:27:38.978Z,102137.34
2022-11-13T23:30:09.658Z,102133.53
2022-11-13T23:32:38.111Z,102126.59
2022-11-13T23:35:08.160Z,102133.41
2022-11-13T23:37:36.044Z,102134.78
2022-11-13T23:40:07.074Z,102135.00
2022-11-13T23:42:54.366Z,102134.78
2022-11-13T23:45:26.302Z,102134.78
2022-11-13T23:47:54.093Z,102151.34
2022-11-13T23:50:23.494Z,102160.34
2022-11-13T23:52:52.077Z,102156.22
2022-11-13T23:55:23.892Z,102151.13
2022-11-13T23:58:04.434Z,102148.00
